createdAt,value
2019-04-10T00:02:04.947Z,91.50
2019-04-10T00:04:33.604Z,91.80
2019-04-10T00:07:13.838Z,91.80
2019-04-10T00:09:32.855Z,92.10
2019-04-10T00:12:05.289Z,92.10
2019-04-10T00:14:34.527Z,92.10
2019-04-10T00:19:51.969Z,92.10
2019-04-10T00:22:20.483Z,92.10
2019-04-10T00:24:50.578Z,92.10
2019-04-10T00:27:19.223Z,92.10
2019-04-10T00:29:50.763Z,92.10
2019-04-10T00:32:23.762Z,92.00
2019-04-10T00:34:52.369Z,92.00
2019-04-10T00:37:26.819Z,92.00
2019-04-10T00:39:53.027Z,92.00
2019-04-10T00:42:23.111Z,92.00
2019-04-10T00:44:52.206Z,92.00
2019-04-10T00:47:21.188Z,91.90
2019-04-10T00:49:50.367Z,91.90
2019-04-10T00:52:21.894Z,92.00
2019-04-10T00:54:51.432Z,91.90
2019-04-10T00:57:21.233Z,91.90
2019-04-10T00:59:54.701Z,91.90
2019-04-10T01:02:24.804Z,91.90
2019-04-10T01:04:53.396Z,91.90
2019-04-10T01:07:32.633Z,91.90
2019-04-10T01:09:52.092Z,91.90
2019-04-10T01:12:21.534Z,91.90
2019-04-10T01:14:50.066Z,91.80
2019-04-10T01:17:18.527Z,91.80
2019-04-10T01:19:52.269Z,91.80
2019-04-10T01:22:23.931Z,92.00
2019-04-10T01:24:52.644Z,92.30
2019-04-10T01:27:23.586Z,92.00
2019-04-10T01:29:52.228Z,92.30
2019-04-10T01:32:21.266Z,92.30
2019-04-10T01:34:49.761Z,92.30
2019-04-10T01:37:18.750Z,92.40
2019-04-10T01:39:48.559Z,92.30
2019-04-10T01:42:20.680Z,92.60
2019-04-10T01:44:51.141Z,92.70
2019-04-10T01:47:39.328Z,92.80
2019-04-10T01:50:10.471Z,92.90
2019-04-10T01:52:39.448Z,92.90
2019-04-10T01:55:20.307Z,93.10
2019-04-10T01:57:44.140Z,93.10
2019-04-10T02:00:15.231Z,93.30
2019-04-10T02:02:47.736Z,93.30
2019-04-10T02:05:16.572Z,93.30
2019-04-10T02:07:57.804Z,93.50
2019-04-10T02:10:17.069Z,93.50
2019-04-10T02:12:47.172Z,94.00
2019-04-10T02:15:19.694Z,94.00
2019-04-10T02:17:49.171Z,94.30
2019-04-10T02:20:21.044Z,94.50
2019-04-10T02:22:54.089Z,94.80
2019-04-10T02:25:22.727Z,94.90
2019-04-10T02:27:52.668Z,95.00
2019-04-10T02:30:26.157Z,95.00
2019-04-10T02:32:57.898Z,95.30
2019-04-10T02:35:27.424Z,95.30
2019-04-10T02:38:24.537Z,95.50
2019-04-10T02:40:37.425Z,95.90
2019-04-10T02:43:12.025Z,95.90
2019-04-10T02:45:40.346Z,96.10
2019-04-10T02:48:10.085Z,96.10
2019-04-10T02:50:40.732Z,96.40
2019-04-10T02:53:10.921Z,96.40
2019-04-10T02:55:43.626Z,96.50
2019-04-10T02:58:12.232Z,96.70
2019-04-10T03:00:43.978Z,97.00
2019-04-10T03:03:13.902Z,97.00
2019-04-10T03:05:42.783Z,97.10
2019-04-10T03:08:13.074Z,97.20
2019-04-10T03:10:48.641Z,97.00
2019-04-10T03:13:13.169Z,97.10
2019-04-10T03:15:43.910Z,97.20
2019-04-10T03:18:18.791Z,97.60
2019-04-10T03:20:46.825Z,97.40
2019-04-10T03:23:15.580Z,97.50
2019-04-10T03:25:45.839Z,97.90
2019-04-10T03:28:14.593Z,98.10
2019-04-10T03:30:46.660Z,98.10
2019-04-10T03:33:27.565Z,97.90
2019-04-10T03:35:54.855Z,98.10
2019-04-10T03:38:23.757Z,98.10
2019-04-10T03:40:53.250Z,98.10
2019-04-10T03:43:21.941Z,98.10
2019-04-10T03:45:50.401Z,98.20
2019-04-10T03:48:20.069Z,98.10
2019-04-10T03:50:52.157Z,98.20
2019-04-10T03:53:22.150Z,98.20
2019-04-10T03:55:52.113Z,98.30
2019-04-10T03:58:20.613Z,98.10
2019-04-10T04:00:50.625Z,98.00
2019-04-10T04:03:20.823Z,98.10
2019-04-10T04:05:49.507Z,98.20
2019-04-10T04:08:20.219Z,98.20
2019-04-10T04:10:49.001Z,98.30
2019-04-10T04:13:19.567Z,98.40
2019-04-10T04:15:50.266Z,98.80
2019-04-10T04:18:20.102Z,98.80
2019-04-10T04:20:51.229Z,98.70
2019-04-10T04:23:19.859Z,98.70
2019-04-10T04:25:48.526Z,98.70
2019-04-10T04:28:20.173Z,98.40
2019-04-10T04:30:50.722Z,98.70
2019-04-10T04:33:21.615Z,98.80
2019-04-10T04:35:55.148Z,98.70
2019-04-10T04:38:28.762Z,98.60
2019-04-10T04:41:02.421Z,99.90
2019-04-10T04:43:31.102Z,99.90
2019-04-10T04:46:01.802Z,99.90
2019-04-10T04:48:31.784Z,99.90
2019-04-10T04:51:01.256Z,99.90
2019-04-10T04:53:32.205Z,99.90
2019-04-10T04:56:01.728Z,99.90
2019-04-10T04:58:30.547Z,99.90
2019-04-10T05:01:00.713Z,99.90
2019-04-10T05:03:33.566Z,99.90
2019-04-10T05:06:02.104Z,99.90
2019-04-10T05:08:32.364Z,99.90
2019-04-10T05:11:02.624Z,99.90
2019-04-10T05:13:32.744Z,99.90
2019-04-10T05:16:06.115Z,99.90
2019-04-10T05:18:35.163Z,99.90
2019-04-10T05:21:05.054Z,99.90
2019-04-10T05:23:33.738Z,99.90
2019-04-10T05:26:04.103Z,99.60
2019-04-10T05:28:32.815Z,99.50
2019-04-10T05:31:01.340Z,99.10
2019-04-10T05:33:30.921Z,99.20
2019-04-10T05:36:01.402Z,98.70
2019-04-10T05:38:30.008Z,98.60
2019-04-10T05:41:01.378Z,98.00
2019-04-10T05:43:30.644Z,97.70
2019-04-10T05:46:00.765Z,97.00
2019-04-10T05:48:31.673Z,96.60
2019-04-10T05:51:04.771Z,96.20
2019-04-10T05:53:32.715Z,95.50
2019-04-10T05:56:01.544Z,94.90
2019-04-10T05:58:31.420Z,94.60
2019-04-10T06:01:01.737Z,94.20
2019-04-10T06:03:32.367Z,93.60
2019-04-10T06:06:01.253Z,93.10
2019-04-10T06:08:31.201Z,93.10
2019-04-10T06:11:00.510Z,93.40
2019-04-10T06:13:32.609Z,93.10
2019-04-10T06:16:03.898Z,92.50
2019-04-10T06:18:33.341Z,91.80
2019-04-10T06:21:05.089Z,91.80
2019-04-10T06:23:34.156Z,91.30
2019-04-10T06:26:04.043Z,91.20
2019-04-10T06:28:32.898Z,91.20
2019-04-10T06:31:02.439Z,91.30
2019-04-10T06:33:31.927Z,91.20
2019-04-10T06:36:00.825Z,91.20
2019-04-10T06:38:35.093Z,91.20
2019-04-10T06:41:03.618Z,91.20
2019-04-10T06:43:37.191Z,91.20
2019-04-10T06:46:06.935Z,91.20
2019-04-10T06:48:36.246Z,91.20
2019-04-10T06:51:08.173Z,91.20
2019-04-10T06:53:37.423Z,91.30
2019-04-10T06:56:07.429Z,91.40
2019-04-10T06:58:36.109Z,91.40
2019-04-10T07:01:04.807Z,90.90
2019-04-10T07:03:49.663Z,90.60
2019-04-10T07:06:14.233Z,90.70
2019-04-10T07:08:45.427Z,90.00
2019-04-10T07:11:18.053Z,89.00
2019-04-10T07:13:44.950Z,89.80
2019-04-10T07:16:13.686Z,87.50
2019-04-10T07:18:45.892Z,87.30
2019-04-10T07:21:14.679Z,88.40
2019-04-10T07:23:44.979Z,90.30
2019-04-10T07:26:18.519Z,89.80
2019-04-10T07:28:45.727Z,90.00
2019-04-10T07:31:14.139Z,88.40
2019-04-10T07:33:48.892Z,87.50
2019-04-10T07:36:18.726Z,88.00
2019-04-10T07:38:48.922Z,87.40
2019-04-10T07:41:21.461Z,87.10
2019-04-10T07:43:52.830Z,86.10
2019-04-10T07:46:17.857Z,85.30
2019-04-10T07:48:46.329Z,84.60
2019-04-10T07:51:16.954Z,83.10
2019-04-10T07:53:46.916Z,80.30
2019-04-10T07:56:19.193Z,79.70
2019-04-10T07:58:48.219Z,78.50
2019-04-10T08:01:16.811Z,78.20
2019-04-10T08:03:50.929Z,76.90
2019-04-10T08:06:21.640Z,76.30
2019-04-10T08:08:49.914Z,77.00
2019-04-10T08:11:18.368Z,79.90
2019-04-10T08:13:47.140Z,78.80
2019-04-10T08:16:16.936Z,76.10
2019-04-10T08:18:45.746Z,72.00
2019-04-10T08:21:14.267Z,71.30
2019-04-10T08:23:42.953Z,69.60
2019-04-10T08:26:16.751Z,70.00
2019-04-10T08:28:45.443Z,70.20
2019-04-10T08:31:17.061Z,67.60
2019-04-10T08:33:46.170Z,65.40
2019-04-10T08:36:16.281Z,64.40
2019-04-10T08:38:46.632Z,65.20
2019-04-10T08:41:15.188Z,65.50
2019-04-10T08:43:43.893Z,66.30
2019-04-10T08:46:12.902Z,66.30
2019-04-10T08:48:43.324Z,63.90
2019-04-10T08:51:11.953Z,64.70
2019-04-10T08:53:44.746Z,63.50
2019-04-10T08:56:13.256Z,62.90
2019-04-10T08:58:46.019Z,60.80
2019-04-10T09:01:15.411Z,58.90
2019-04-10T09:03:44.107Z,59.30
2019-04-10T09:06:13.356Z,60.60
2019-04-10T09:08:42.118Z,60.00
2019-04-10T09:11:11.946Z,60.70
2019-04-10T09:13:41.692Z,62.00
2019-04-10T09:16:10.553Z,63.10
2019-04-10T09:18:43.500Z,62.40
2019-04-10T09:21:13.217Z,59.60
2019-04-10T09:23:50.468Z,59.90
2019-04-10T09:26:13.436Z,61.50
2019-04-10T09:28:42.440Z,59.40
2019-04-10T09:31:11.946Z,59.20
2019-04-10T09:33:40.498Z,56.70
2019-04-10T09:36:13.129Z,59.80
2019-04-10T09:38:41.739Z,58.40
2019-04-10T09:41:11.940Z,58.10
2019-04-10T09:43:42.219Z,56.10
2019-04-10T09:46:12.699Z,54.90
2019-04-10T09:48:42.064Z,54.20
2019-04-10T09:51:11.673Z,53.60
2019-04-10T09:53:45.426Z,53.30
2019-04-10T09:56:15.067Z,52.20
2019-04-10T09:58:44.878Z,53.40
2019-04-10T10:01:16.160Z,51.10
2019-04-10T10:03:44.977Z,50.70
2019-04-10T10:06:24.349Z,52.60
2019-04-10T10:08:45.597Z,52.90
2019-04-10T10:11:14.261Z,55.70
2019-04-10T10:13:42.737Z,53.20
2019-04-10T10:16:15.210Z,53.90
2019-04-10T10:18:46.145Z,50.70
2019-04-10T10:21:17.283Z,52.10
2019-04-10T10:23:46.480Z,52.50
2019-04-10T10:26:17.816Z,49.50
2019-04-10T10:28:47.315Z,48.00
2019-04-10T10:31:20.264Z,50.20
2019-04-10T10:33:50.034Z,49.60
2019-04-10T10:36:18.696Z,48.20
2019-04-10T10:38:48.219Z,49.70
2019-04-10T10:41:18.211Z,49.80
2019-04-10T10:43:46.880Z,47.50
2019-04-10T10:46:15.564Z,47.70
2019-04-10T10:48:44.500Z,47.80
2019-04-10T10:51:14.873Z,48.10
2019-04-10T10:53:44.083Z,48.30
2019-04-10T10:56:13.979Z,48.50
2019-04-10T10:58:42.465Z,48.50
2019-04-10T11:01:11.598Z,46.60
2019-04-10T11:03:42.589Z,46.90
2019-04-10T11:06:11.140Z,48.40
2019-04-10T11:08:41.771Z,46.90
2019-04-10T11:11:10.338Z,46.70
2019-04-10T11:13:39.221Z,47.60
2019-04-10T11:16:09.094Z,45.50
2019-04-10T11:18:40.926Z,45.20
2019-04-10T11:21:14.094Z,46.50
2019-04-10T11:23:42.696Z,46.00
2019-04-10T11:26:12.842Z,45.40
2019-04-10T11:28:41.924Z,48.50
2019-04-10T11:31:13.609Z,46.50
2019-04-10T11:33:43.374Z,45.60
2019-04-10T11:36:15.142Z,47.30
2019-04-10T11:38:46.489Z,48.50
2019-04-10T11:41:17.654Z,46.50
2019-04-10T11:43:47.993Z,44.50
2019-04-10T11:46:16.930Z,45.30
2019-04-10T11:48:47.058Z,43.30
2019-04-10T11:51:16.488Z,48.20
2019-04-10T11:53:54.418Z,46.60
2019-04-10T11:56:23.508Z,43.90
2019-04-10T11:58:56.325Z,42.50
2019-04-10T12:01:25.522Z,41.70
2019-04-10T12:03:56.810Z,43.40
2019-04-10T12:06:29.819Z,43.20
2019-04-10T12:09:23.229Z,43.70
2019-04-10T12:11:29.596Z,43.90
2019-04-10T12:13:58.944Z,42.00
2019-04-10T12:16:27.738Z,42.50
2019-04-10T12:18:57.331Z,43.70
2019-04-10T12:21:29.567Z,42.70
2019-04-10T12:23:58.936Z,43.60
2019-04-10T12:26:29.073Z,43.40
2019-04-10T12:28:58.203Z,41.90
2019-04-10T12:31:26.759Z,42.10
2019-04-10T12:33:55.540Z,42.30
2019-04-10T12:36:24.662Z,39.60
2019-04-10T12:38:56.156Z,41.80
2019-04-10T12:41:25.603Z,41.70
2019-04-10T12:43:57.235Z,41.50
2019-04-10T12:46:26.736Z,41.90
2019-04-10T12:49:00.120Z,42.80
2019-04-10T12:51:29.859Z,43.10
2019-04-10T12:53:58.471Z,40.90
2019-04-10T12:56:26.940Z,42.40
2019-04-10T12:58:59.347Z,40.20
2019-04-10T13:01:28.903Z,40.80
2019-04-10T13:03:58.500Z,40.40
2019-04-10T13:06:30.164Z,40.10
2019-04-10T13:09:07.302Z,40.30
2019-04-10T13:11:29.857Z,40.30
2019-04-10T13:14:00.065Z,40.10
2019-04-10T13:16:28.838Z,37.50
2019-04-10T13:18:58.872Z,38.50
2019-04-10T13:21:28.449Z,38.40
2019-04-10T13:23:57.283Z,40.00
2019-04-10T13:26:26.022Z,39.60
2019-04-10T13:28:54.571Z,41.90
2019-04-10T13:31:23.563Z,37.80
2019-04-10T13:33:53.542Z,39.90
2019-04-10T13:36:23.884Z,39.20
2019-04-10T13:38:54.981Z,38.70
2019-04-10T13:41:24.142Z,37.50
2019-04-10T13:43:55.501Z,37.80
2019-04-10T13:46:26.871Z,39.30
2019-04-10T13:48:55.592Z,38.00
2019-04-10T13:51:25.804Z,38.10
2019-04-10T13:53:55.186Z,37.10
2019-04-10T13:56:25.341Z,36.80
2019-04-10T13:58:53.887Z,37.70
2019-04-10T14:01:28.284Z,39.70
2019-04-10T14:03:58.734Z,39.50
2019-04-10T14:06:27.495Z,38.20
2019-04-10T14:09:12.008Z,38.90
2019-04-10T14:11:29.184Z,38.00
2019-04-10T14:14:00.160Z,39.10
2019-04-10T14:16:28.928Z,39.10
2019-04-10T14:18:57.493Z,39.20
2019-04-10T14:21:29.092Z,39.60
2019-04-10T14:23:57.990Z,38.20
2019-04-10T14:26:42.098Z,37.90
2019-04-10T14:29:05.221Z,38.50
2019-04-10T14:31:38.064Z,38.30
2019-04-10T14:34:10.334Z,39.00
2019-04-10T14:36:40.571Z,38.90
2019-04-10T14:39:18.429Z,39.60
2019-04-10T14:41:49.763Z,39.20
2019-04-10T14:44:18.492Z,37.80
2019-04-10T14:46:47.559Z,38.10
2019-04-10T14:49:16.772Z,38.90
2019-04-10T14:51:46.336Z,37.90
2019-04-10T14:54:15.538Z,38.90
2019-04-10T14:56:44.234Z,36.70
2019-04-10T14:59:15.658Z,37.00
2019-04-10T15:01:44.739Z,38.20
2019-04-10T15:04:14.982Z,37.40
2019-04-10T15:06:45.863Z,37.90
2019-04-10T15:09:23.989Z,36.80
2019-04-10T15:11:49.018Z,37.50
2019-04-10T15:14:21.626Z,36.30
2019-04-10T15:16:55.477Z,37.40
2019-04-10T15:19:24.622Z,37.30
2019-04-10T15:21:54.017Z,37.40
2019-04-10T15:24:23.793Z,36.70
2019-04-10T15:26:57.218Z,37.80
2019-04-10T15:29:26.025Z,36.60
2019-04-10T15:31:55.776Z,35.90
2019-04-10T15:34:28.254Z,35.10
2019-04-10T15:36:56.928Z,35.50
2019-04-10T15:39:32.120Z,36.50
2019-04-10T15:41:57.441Z,36.10
2019-04-10T15:44:25.941Z,35.00
2019-04-10T15:47:09.483Z,35.90
2019-04-10T15:49:30.942Z,35.20
2019-04-10T15:51:59.654Z,35.40
2019-04-10T15:54:29.961Z,34.80
2019-04-10T15:57:00.754Z,34.90
2019-04-10T15:59:30.257Z,34.70
2019-04-10T16:01:59.429Z,35.10
2019-04-10T16:04:28.198Z,34.90
2019-04-10T16:06:57.899Z,34.80
2019-04-10T16:09:27.374Z,35.60
2019-04-10T16:11:58.475Z,34.90
2019-04-10T16:14:32.095Z,34.60
2019-04-10T16:17:08.876Z,35.40
2019-04-10T16:19:49.452Z,35.90
2019-04-10T16:22:37.148Z,37.00
2019-04-10T16:25:11.625Z,38.20
2019-04-10T16:27:41.346Z,39.00
2019-04-10T16:30:12.958Z,40.30
2019-04-10T16:32:41.857Z,41.30
2019-04-10T16:35:12.170Z,43.00
2019-04-10T16:37:41.801Z,44.40
2019-04-10T16:40:14.853Z,45.30
2019-04-10T16:42:43.691Z,44.90
2019-04-10T16:45:13.585Z,44.80
2019-04-10T16:47:42.718Z,44.70
2019-04-10T16:50:13.282Z,44.60
2019-04-10T16:52:42.006Z,44.50
2019-04-10T16:55:10.935Z,44.40
2019-04-10T16:57:39.479Z,44.40
2019-04-10T17:00:08.957Z,44.30
2019-04-10T17:02:38.084Z,45.40
2019-04-10T17:05:08.201Z,45.70
2019-04-10T17:07:39.715Z,46.00
2019-04-10T17:10:19.353Z,46.60
2019-04-10T17:12:44.255Z,46.60
2019-04-10T17:15:16.132Z,46.50
2019-04-10T17:17:47.035Z,46.00
2019-04-10T17:20:16.138Z,46.50
2019-04-10T17:22:48.578Z,46.40
2019-04-10T17:25:14.974Z,47.00
2019-04-10T17:27:43.803Z,47.40
2019-04-10T17:30:13.907Z,47.40
2019-04-10T17:32:42.747Z,46.70
2019-04-10T17:35:13.698Z,47.00
2019-04-10T17:37:42.295Z,47.20
2019-04-10T17:40:28.011Z,47.60
2019-04-10T17:42:44.335Z,46.60
2019-04-10T17:45:14.206Z,47.00
2019-04-10T17:47:43.287Z,46.90
2019-04-10T17:50:16.116Z,46.80
2019-04-10T17:52:45.164Z,48.20
2019-04-10T17:55:23.167Z,48.00
2019-04-10T17:57:57.667Z,47.50
2019-04-10T18:00:31.360Z,48.10
2019-04-10T18:03:01.112Z,48.40
2019-04-10T18:05:30.766Z,48.10
2019-04-10T18:07:59.479Z,48.50
2019-04-10T18:10:41.143Z,48.70
2019-04-10T18:13:01.047Z,48.50
2019-04-10T18:15:30.319Z,48.40
2019-04-10T18:17:59.938Z,49.30
2019-04-10T18:20:28.562Z,49.60
2019-04-10T18:22:58.729Z,49.20
2019-04-10T18:25:27.689Z,48.70
2019-04-10T18:27:56.870Z,48.70
2019-04-10T18:30:25.535Z,49.00
2019-04-10T18:32:54.182Z,49.90
2019-04-10T18:35:26.754Z,50.00
2019-04-10T18:37:55.488Z,50.20
2019-04-10T18:40:25.307Z,50.40
2019-04-10T18:42:57.582Z,50.60
2019-04-10T18:45:28.021Z,51.80
2019-04-10T18:47:56.672Z,51.30
2019-04-10T18:50:25.206Z,52.20
2019-04-10T18:52:53.971Z,52.80
2019-04-10T18:55:24.552Z,53.30
2019-04-10T18:57:53.156Z,54.00
2019-04-10T19:00:37.080Z,54.60
2019-04-10T19:03:10.245Z,55.20
2019-04-10T19:05:40.426Z,55.80
2019-04-10T19:08:12.783Z,56.30
2019-04-10T19:10:40.857Z,56.70
2019-04-10T19:13:09.696Z,57.00
2019-04-10T19:15:40.125Z,57.40
2019-04-10T19:18:08.555Z,57.10
2019-04-10T19:20:37.088Z,57.40
2019-04-10T19:23:06.677Z,57.90
2019-04-10T19:25:36.927Z,58.00
2019-04-10T19:28:08.637Z,58.20
2019-04-10T19:30:41.453Z,58.20
2019-04-10T19:33:12.142Z,59.00
2019-04-10T19:35:41.377Z,59.30
2019-04-10T19:38:11.582Z,59.60
2019-04-10T19:40:40.403Z,60.20
2019-04-10T19:43:10.480Z,60.30
2019-04-10T19:45:39.793Z,60.90
2019-04-10T19:48:10.844Z,61.60
2019-04-10T19:50:42.238Z,61.70
2019-04-10T19:53:11.205Z,62.60
2019-04-10T19:55:42.119Z,62.90
2019-04-10T19:58:12.377Z,63.20
2019-04-10T20:00:41.469Z,63.90
2019-04-10T20:03:11.186Z,63.70
2019-04-10T20:05:39.919Z,63.90
2019-04-10T20:08:09.278Z,64.60
2019-04-10T20:10:41.470Z,64.80
2019-04-10T20:13:14.440Z,64.70
2019-04-10T20:15:44.929Z,65.20
2019-04-10T20:18:13.402Z,65.40
2019-04-10T20:20:43.697Z,66.10
2019-04-10T20:23:12.733Z,66.10
2019-04-10T20:25:42.885Z,67.00
2019-04-10T20:28:12.264Z,67.90
2019-04-10T20:30:40.881Z,67.90
2019-04-10T20:33:10.320Z,67.50
2019-04-10T20:35:42.488Z,67.80
2019-04-10T20:38:11.520Z,67.70
2019-04-10T20:40:40.212Z,67.70
2019-04-10T20:43:08.951Z,67.60
2019-04-10T20:45:37.983Z,67.60
2019-04-10T20:48:06.663Z,67.60
2019-04-10T20:50:37.110Z,67.60
2019-04-10T20:53:05.530Z,67.60
2019-04-10T20:55:33.988Z,67.60
2019-04-10T20:58:06.536Z,67.60
2019-04-10T21:00:41.086Z,67.60
2019-04-10T21:03:15.539Z,67.50
2019-04-10T21:05:42.468Z,69.40
2019-04-10T21:08:13.907Z,70.50
2019-04-10T21:10:42.907Z,71.00
2019-04-10T21:13:14.948Z,72.80
2019-04-10T21:15:44.377Z,71.40
2019-04-10T21:18:13.205Z,72.10
2019-04-10T21:20:45.170Z,72.20
2019-04-10T21:23:13.781Z,72.40
2019-04-10T21:25:45.595Z,72.90
2019-04-10T21:28:14.200Z,72.70
2019-04-10T21:30:44.923Z,73.30
2019-04-10T21:33:22.645Z,72.90
2019-04-10T21:35:51.921Z,73.40
2019-04-10T21:38:21.651Z,73.60
2019-04-10T21:40:53.223Z,73.70
2019-04-10T21:43:22.789Z,73.80
2019-04-10T21:45:51.863Z,73.70
2019-04-10T21:48:20.457Z,74.10
2019-04-10T21:50:49.668Z,74.10
2019-04-10T21:53:18.520Z,74.30
2019-04-10T21:55:48.394Z,75.10
2019-04-10T21:58:16.846Z,75.10
2019-04-10T22:00:52.725Z,75.50
2019-04-10T22:03:25.306Z,75.80
2019-04-10T22:06:01.561Z,76.20
2019-04-10T22:08:37.537Z,77.20
2019-04-10T22:11:06.414Z,77.00
2019-04-10T22:13:37.922Z,77.20
2019-04-10T22:16:09.269Z,77.60
2019-04-10T22:18:37.941Z,77.80
2019-04-10T22:21:06.746Z,78.10
2019-04-10T22:23:36.291Z,78.80
2019-04-10T22:26:05.940Z,78.60
2019-04-10T22:28:34.435Z,79.30
2019-04-10T22:33:52.625Z,79.60
2019-04-10T22:36:21.142Z,79.80
2019-04-10T22:38:53.809Z,80.70
2019-04-10T22:41:30.628Z,81.20
2019-04-10T22:43:57.697Z,80.90
2019-04-10T22:46:26.233Z,82.80
2019-04-10T22:48:57.845Z,81.80
2019-04-10T22:51:27.044Z,82.10
2019-04-10T22:53:56.308Z,82.00
2019-04-10T22:56:25.187Z,82.20
2019-04-10T22:58:53.708Z,82.70
2019-04-10T23:01:22.822Z,82.70
2019-04-10T23:03:55.520Z,83.20
2019-04-10T23:06:29.186Z,83.30
2019-04-10T23:08:58.104Z,83.90
2019-04-10T23:11:37.270Z,83.80
2019-04-10T23:14:01.190Z,83.90
2019-04-10T23:16:34.151Z,84.10
2019-04-10T23:19:04.225Z,84.80
2019-04-10T23:21:36.585Z,84.60
2019-04-10T23:24:05.556Z,85.00
2019-04-10T23:26:35.511Z,85.20
2019-04-10T23:29:04.249Z,85.90
2019-04-10T23:31:33.949Z,85.70
2019-04-10T23:34:02.675Z,85.80
2019-04-10T23:36:32.599Z,86.40
2019-04-10T23:39:03.832Z,87.00
2019-04-10T23:41:34.005Z,87.70
2019-04-10T23:44:07.354Z,88.20
2019-04-10T23:46:40.097Z,88.90
2019-04-10T23:49:08.979Z,89.30
2019-04-10T23:51:41.934Z,90.40
2019-04-10T23:54:13.082Z,90.80
2019-04-10T23:56:41.935Z,90.70
2019-04-10T23:59:12.715Z,90.70
